Main page
METAR-TAF:

METAR-TAF

Airports :

Ushuaia, Argentina

Ushuaia – Malvinas Argentinas International Airport

latitude: 54-48S, longitude: 068-19W, elevation: 16 m

Current weather observation

The report was made 1 hour and 1 minutes ago, at 16:00 UTC
Calm wind
Temperature
Pressure

METAR: SAWH 261600Z 00000KT CAVO1016

Time: 14:01 (17:01 UTC)

Forecast

The report was made 6 hours and 1 minutes ago, at 11:00 UTC
Forecast valid from 26 at 12 UTC to 27 at 12 UTC
Wind 5 kt from variable directions
Visibility 10 km or more
no clouds below 1500 m and no cumulonimbus
Becoming
from 26 at 23 UTC to 27 at 01 UTC
Wind 5 kt from the North
Visibility: 2000 m
mist

TAF: SAWH 261100Z 2612/2712 VRB05KT CAVOK TX14/2619Z TN02/2612Z BECMG 2623/2701 36005KT 2000 BR NSC

Weather observations and forecasts of more than 4000 airports (METAR and TAF reports).

The available stations are represented by yellow and red dots on the map.

Hover mouse over dot to see the name of the station.

Then click to see weather observations and forecasts.

To change the map : click on the green buttons with a black cross to zoom in, on the green button with a dash to zoom out, or on the green arrows for adjacent maps.


METAR-TAF: